createdAt,value
2023-03-08T00:01:58.148Z,97650.28
2023-03-08T00:04:26.359Z,97654.06
2023-03-08T00:06:54.496Z,97656.88
2023-03-08T00:09:23.785Z,97658.25
2023-03-08T00:11:51.724Z,97666.63
2023-03-08T00:14:21.021Z,97657.03
2023-03-08T00:16:49.033Z,97661.44
2023-03-08T00:19:17.179Z,97663.66
2023-03-08T00:21:45.312Z,97664.66
2023-03-08T00:24:16.821Z,97661.47
2023-03-08T00:26:46.333Z,97656.69
2023-03-08T00:29:14.345Z,97664.09
2023-03-08T00:31:42.659Z,97663.50
2023-03-08T00:34:10.620Z,97672.28
2023-03-08T00:36:38.647Z,97669.09
2023-03-08T00:39:06.830Z,97670.91
2023-03-08T00:41:34.879Z,97668.50
2023-03-08T00:44:04.657Z,97671.31
2023-03-08T00:46:32.657Z,97671.09
2023-03-08T00:49:00.684Z,97664.31
2023-03-08T00:51:28.865Z,97665.31
2023-03-08T00:53:56.883Z,97663.50
2023-03-08T00:56:24.941Z,97662.72
2023-03-08T00:58:52.941Z,97657.94
2023-03-08T01:01:22.389Z,97657.94
2023-03-08T01:03:50.422Z,97651.38
2023-03-08T01:06:18.703Z,97659.69
2023-03-08T01:08:46.707Z,97659.69
2023-03-08T01:11:18.759Z,97652.75
2023-03-08T01:13:46.938Z,97653.72
2023-03-08T01:16:19.068Z,97653.16
2023-03-08T01:18:48.565Z,97659.72
2023-03-08T01:21:16.635Z,97649.22
2023-03-08T01:23:44.772Z,97641.84
2023-03-08T01:26:13.573Z,97637.31
2023-03-08T01:28:41.592Z,97642.47
2023-03-08T01:31:10.262Z,97643.66
2023-03-08T01:33:38.450Z,97645.28
2023-03-08T01:36:10.982Z,97640.13
2023-03-08T01:38:39.377Z,97638.34
2023-03-08T01:41:08.620Z,97642.34
2023-03-08T01:43:37.553Z,97639.38
2023-03-08T01:46:07.222Z,97630.44
2023-03-08T01:48:36.960Z,97628.84
2023-03-08T01:51:05.983Z,97628.66
2023-03-08T01:53:38.027Z,97633.03
2023-03-08T01:56:07.117Z,97634.25
2023-03-08T01:58:35.259Z,97635.44
2023-03-08T02:01:03.192Z,97639.63
2023-03-08T02:03:31.223Z,97644.22
2023-03-08T02:05:59.204Z,97640.88
2023-03-08T02:08:27.193Z,97647.44
2023-03-08T02:10:57.637Z,97649.81
2023-03-08T02:13:26.398Z,97643.88
2023-03-08T02:15:56.933Z,97642.69
2023-03-08T02:18:25.022Z,97643.28
2023-03-08T02:20:53.036Z,97641.09
2023-03-08T02:23:23.011Z,97637.13
2023-03-08T02:25:52.168Z,97631.16
2023-03-08T02:28:20.759Z,97634.56
2023-03-08T02:30:49.069Z,97634.38
2023-03-08T02:33:17.040Z,97628.03
2023-03-08T02:35:45.185Z,97635.56
2023-03-08T02:38:14.075Z,97640.91
2023-03-08T02:40:43.626Z,97636.78
2023-03-08T02:43:11.889Z,97635.56
2023-03-08T02:45:39.850Z,97638.56
2023-03-08T02:48:07.980Z,97639.53
2023-03-08T02:50:36.693Z,97638.38
2023-03-08T02:53:04.824Z,97643.97
2023-03-08T02:55:36.148Z,97649.53
2023-03-08T02:58:05.849Z,97643.16
2023-03-08T03:00:33.881Z,97649.13
2023-03-08T03:03:01.778Z,97647.09
2023-03-08T03:05:29.835Z,97648.69
2023-03-08T03:07:58.780Z,97643.94
2023-03-08T03:10:27.146Z,97643.91
2023-03-08T03:12:55.266Z,97644.72
2023-03-08T03:15:24.680Z,97645.31
2023-03-08T03:17:52.666Z,97650.25
2023-03-08T03:20:20.749Z,97650.63
2023-03-08T03:22:48.893Z,97655.59
2023-03-08T03:25:16.903Z,97654.19
2023-03-08T03:27:44.806Z,97648.63
2023-03-08T03:30:13.363Z,97655.16
2023-03-08T03:32:42.721Z,97652.78
2023-03-08T03:35:11.051Z,97644.81
2023-03-08T03:37:38.948Z,97639.63
2023-03-08T03:40:07.596Z,97652.13
2023-03-08T03:42:35.576Z,97658.69
2023-03-08T03:45:03.613Z,97657.34
2023-03-08T03:47:31.812Z,97655.81
2023-03-08T03:50:01.346Z,97645.91
2023-03-08T03:52:29.219Z,97643.94
2023-03-08T03:54:57.065Z,97645.94
2023-03-08T03:57:25.265Z,97652.28
2023-03-08T03:59:53.133Z,97657.25
2023-03-08T04:02:21.151Z,97661.25
2023-03-08T04:04:50.233Z,97649.91
2023-03-08T04:07:19.510Z,97657.63
2023-03-08T04:09:47.829Z,97653.06
2023-03-08T04:12:15.772Z,97657.44
2023-03-08T04:14:43.883Z,97661.81
2023-03-08T04:17:11.721Z,97664.22
2023-03-08T04:19:39.875Z,97668.78
2023-03-08T04:22:07.970Z,97667.78
2023-03-08T04:24:37.802Z,97663.00
2023-03-08T04:27:05.844Z,97663.97
2023-03-08T04:29:33.922Z,97677.13
2023-03-08T04:32:01.766Z,97689.63
2023-03-08T04:34:29.890Z,97683.66
2023-03-08T04:36:57.835Z,97687.47
2023-03-08T04:39:26.038Z,97696.00
2023-03-08T04:41:55.706Z,97701.56
2023-03-08T04:44:23.530Z,97711.50
2023-03-08T04:46:51.687Z,97702.38
2023-03-08T04:49:19.620Z,97692.81
2023-03-08T04:51:47.573Z,97700.38
2023-03-08T04:54:15.683Z,97708.13
2023-03-08T04:56:43.741Z,97710.50
2023-03-08T04:59:12.990Z,97707.53
2023-03-08T05:01:42.780Z,97717.09
2023-03-08T05:04:11.488Z,97703.53
2023-03-08T05:06:39.767Z,97691.38
2023-03-08T05:09:07.703Z,97700.53
2023-03-08T05:11:35.638Z,97696.09
2023-03-08T05:14:03.688Z,97702.84
2023-03-08T05:16:33.076Z,97699.81
2023-03-08T05:19:01.097Z,97690.28
2023-03-08T05:21:29.061Z,97689.50
2023-03-08T05:23:57.010Z,97693.84
2023-03-08T05:26:24.900Z,97689.41
2023-03-08T05:28:52.977Z,97690.34
2023-03-08T05:31:21.837Z,97684.34
2023-03-08T05:33:52.228Z,97680.72
2023-03-08T05:36:20.240Z,97689.03
2023-03-08T05:38:48.504Z,97692.38
2023-03-08T05:41:17.685Z,97683.13
2023-03-08T05:43:45.914Z,97680.41
2023-03-08T05:46:15.293Z,97689.88
2023-03-08T05:48:43.298Z,97690.66
2023-03-08T05:51:13.875Z,97689.78
2023-03-08T05:53:42.042Z,97681.88
2023-03-08T05:56:11.133Z,97692.03
2023-03-08T05:58:41.434Z,97698.50
2023-03-08T06:01:13.943Z,97687.50
2023-03-08T06:03:41.933Z,97700.72
2023-03-08T06:06:09.943Z,97689.78
2023-03-08T06:08:39.482Z,97687.69
2023-03-08T06:11:07.699Z,97694.06
2023-03-08T06:13:36.255Z,97689.88
2023-03-08T06:16:05.274Z,97692.22
2023-03-08T06:18:33.691Z,97683.50
2023-03-08T06:21:02.862Z,97688.63
2023-03-08T06:23:31.794Z,97691.00
2023-03-08T06:26:01.811Z,97685.47
2023-03-08T06:28:30.086Z,97668.41
2023-03-08T06:30:58.122Z,97674.88
2023-03-08T06:33:27.483Z,97666.69
2023-03-08T06:35:59.310Z,97661.41
2023-03-08T06:38:29.540Z,97649.25
2023-03-08T06:40:57.892Z,97649.19
2023-03-08T06:43:27.425Z,97641.72
2023-03-08T06:45:55.698Z,97630.06
2023-03-08T06:48:23.922Z,97618.78
2023-03-08T06:50:52.630Z,97612.53
2023-03-08T06:53:20.882Z,97610.72
2023-03-08T06:55:48.976Z,97616.94
2023-03-08T06:58:16.828Z,97618.91
2023-03-08T07:00:46.383Z,97619.38
2023-03-08T07:03:14.847Z,97612.88
2023-03-08T07:05:43.304Z,97605.63
2023-03-08T07:08:11.420Z,97591.59
2023-03-08T07:10:39.396Z,97595.44
2023-03-08T07:13:07.376Z,97584.69
2023-03-08T07:15:37.837Z,97590.31
2023-03-08T07:18:07.390Z,97582.31
2023-03-08T07:20:35.401Z,97585.31
2023-03-08T07:23:03.368Z,97580.72
2023-03-08T07:25:31.389Z,97585.50
2023-03-08T07:27:59.876Z,97585.91
2023-03-08T07:30:28.317Z,97572.97
2023-03-08T07:32:56.478Z,97583.41
2023-03-08T07:35:25.967Z,97596.03
2023-03-08T07:37:54.118Z,97594.81
2023-03-08T07:40:22.185Z,97581.78
2023-03-08T07:42:50.366Z,97584.75
2023-03-08T07:45:18.899Z,97588.16
2023-03-08T07:47:47.008Z,97592.25
2023-03-08T07:50:14.867Z,97588.00
2023-03-08T07:52:44.441Z,97593.78
2023-03-08T07:55:12.972Z,97598.03
2023-03-08T07:57:41.098Z,97594.19
2023-03-08T08:00:09.628Z,97574.00
2023-03-08T08:02:38.041Z,97585.94
2023-03-08T08:05:06.439Z,97580.47
2023-03-08T08:07:34.555Z,97566.66
2023-03-08T08:10:04.178Z,97560.19
2023-03-08T08:12:32.210Z,97555.78
2023-03-08T08:15:00.200Z,97561.38
2023-03-08T08:17:28.213Z,97555.78
2023-03-08T08:19:56.343Z,97562.72
2023-03-08T08:22:24.596Z,97557.88
2023-03-08T08:24:52.616Z,97561.03
2023-03-08T08:27:21.904Z,97561.28
2023-03-08T08:29:51.024Z,97563.16
2023-03-08T08:32:19.628Z,97545.00
2023-03-08T08:34:47.731Z,97546.06
2023-03-08T08:37:15.854Z,97555.41
2023-03-08T08:39:43.830Z,97546.47
2023-03-08T08:42:11.808Z,97549.44
2023-03-08T08:44:41.182Z,97546.44
2023-03-08T08:47:09.140Z,97538.28
2023-03-08T08:49:37.172Z,97541.09
2023-03-08T08:52:05.678Z,97533.91
2023-03-08T08:54:34.386Z,97530.38
2023-03-08T08:57:02.416Z,97531.25
2023-03-08T08:59:30.409Z,97502.81
2023-03-08T09:01:59.974Z,97524.88
2023-03-08T09:04:28.131Z,97532.69
2023-03-08T09:06:56.341Z,97514.91
2023-03-08T09:09:24.392Z,97518.81
2023-03-08T09:11:55.616Z,97507.94
2023-03-08T09:14:24.143Z,97505.19
2023-03-08T09:16:52.775Z,97487.09
2023-03-08T09:19:22.445Z,97489.59
2023-03-08T09:21:50.537Z,97481.22
2023-03-08T09:24:18.601Z,97472.28
2023-03-08T09:26:46.830Z,97465.69
2023-03-08T09:29:14.834Z,97461.56
2023-03-08T09:31:45.474Z,97459.91
2023-03-08T09:34:15.035Z,97464.53
2023-03-08T09:36:44.608Z,97449.06
2023-03-08T09:39:14.555Z,97441.19
2023-03-08T09:41:53.171Z,97453.63
2023-03-08T09:44:44.115Z,97456.88
2023-03-08T09:47:18.035Z,97438.84
2023-03-08T09:49:48.407Z,97441.09
2023-03-08T09:52:19.297Z,97425.13
2023-03-08T09:54:48.270Z,97439.75
2023-03-08T09:57:19.400Z,97426.00
2023-03-08T09:59:50.805Z,97417.09
2023-03-08T10:02:23.324Z,97410.84
2023-03-08T10:05:11.824Z,97400.16
2023-03-08T10:07:49.663Z,97401.25
2023-03-08T10:10:30.018Z,97395.25
2023-03-08T10:13:05.149Z,97387.84
2023-03-08T10:15:35.254Z,97384.44
2023-03-08T10:18:05.059Z,97387.84
2023-03-08T10:20:35.697Z,97390.69
2023-03-08T10:23:11.917Z,97388.00
2023-03-08T10:25:40.141Z,97382.97
2023-03-08T10:28:12.866Z,97356.28
2023-03-08T10:30:42.934Z,97365.50
2023-03-08T10:33:12.408Z,97359.28
2023-03-08T10:35:51.409Z,97367.16
2023-03-08T10:38:20.882Z,97350.44
2023-03-08T10:40:48.954Z,97345.22
2023-03-08T10:43:26.722Z,97343.63
2023-03-08T10:46:05.424Z,97335.28
2023-03-08T10:48:34.218Z,97334.72
2023-03-08T10:51:03.407Z,97341.31
2023-03-08T10:53:33.391Z,97320.63
2023-03-08T10:56:02.728Z,97318.00
2023-03-08T10:58:35.282Z,97319.06
2023-03-08T11:01:04.592Z,97314.88
2023-03-08T11:03:32.675Z,97313.56
2023-03-08T11:06:01.552Z,97304.13
2023-03-08T11:08:30.813Z,97288.41
2023-03-08T11:11:05.053Z,97304.41
2023-03-08T11:13:35.316Z,97290.75
2023-03-08T11:16:10.080Z,97286.56
2023-03-08T11:18:47.188Z,97284.47
2023-03-08T11:21:21.267Z,97273.19
2023-03-08T11:23:53.134Z,97266.41
2023-03-08T11:26:24.949Z,97256.66
2023-03-08T11:29:03.360Z,97253.50
2023-03-08T11:31:35.287Z,97245.31
2023-03-08T11:34:19.282Z,97243.09
2023-03-08T11:36:49.827Z,97235.09
2023-03-08T11:39:20.190Z,97235.63
2023-03-08T11:41:57.212Z,97241.88
2023-03-08T11:44:45.195Z,97218.28
2023-03-08T11:47:28.390Z,97217.13
2023-03-08T11:50:06.225Z,97226.28
2023-03-08T11:52:39.156Z,97207.44
2023-03-08T11:55:20.759Z,97208.75
2023-03-08T11:57:54.531Z,97205.59
2023-03-08T12:00:24.314Z,97203.72
2023-03-08T12:02:52.415Z,97195.41
2023-03-08T12:05:26.538Z,97193.28
2023-03-08T12:07:57.484Z,97182.28
2023-03-08T12:10:27.241Z,97177.34
2023-03-08T12:13:00.295Z,97172.38
2023-03-08T12:15:31.173Z,97154.56
2023-03-08T12:18:04.206Z,97158.75
2023-03-08T12:20:36.129Z,97147.25
2023-03-08T12:23:09.778Z,97146.72
2023-03-08T12:25:40.544Z,97146.47
2023-03-08T12:28:13.718Z,97133.63
2023-03-08T12:30:50.342Z,97123.69
2023-03-08T12:33:19.327Z,97122.88
2023-03-08T12:35:52.104Z,97118.19
2023-03-08T12:38:31.059Z,97124.47
2023-03-08T12:40:59.128Z,97116.34
2023-03-08T12:43:32.747Z,97114.25
2023-03-08T12:46:03.387Z,97102.50
2023-03-08T12:48:32.147Z,97105.38
2023-03-08T12:51:03.325Z,97107.44
2023-03-08T12:53:33.841Z,97087.81
2023-03-08T12:56:03.041Z,97088.59
2023-03-08T12:58:33.686Z,97082.84
2023-03-08T13:01:03.134Z,97084.94
2023-03-08T13:03:37.594Z,97084.41
2023-03-08T13:06:15.937Z,97072.91
2023-03-08T13:08:46.566Z,97064.53
2023-03-08T13:11:16.889Z,97061.38
2023-03-08T13:13:50.632Z,97054.31
2023-03-08T13:16:30.288Z,97036.75
2023-03-08T13:19:03.217Z,97043.00
2023-03-08T13:21:35.453Z,97042.22
2023-03-08T13:24:08.450Z,97020.53
2023-03-08T13:26:54.332Z,97015.81
2023-03-08T13:29:23.788Z,97012.38
2023-03-08T13:31:52.597Z,97006.81
2023-03-08T13:34:28.717Z,96997.63
2023-03-08T13:36:57.105Z,96996.84
2023-03-08T13:39:26.068Z,96991.41
2023-03-08T13:41:54.507Z,96977.00
2023-03-08T13:44:25.424Z,96973.06
2023-03-08T13:46:55.410Z,96961.81
2023-03-08T13:49:25.337Z,96968.34
2023-03-08T13:51:54.675Z,96961.56
2023-03-08T13:54:29.507Z,96956.13
2023-03-08T13:56:57.798Z,96946.22
2023-03-08T13:59:27.821Z,96945.16
2023-03-08T14:01:56.626Z,96944.88
2023-03-08T14:04:25.951Z,96941.47
2023-03-08T14:06:55.047Z,96928.44
2023-03-08T14:09:23.266Z,96914.31
2023-03-08T14:11:57.039Z,96916.69
2023-03-08T14:14:27.860Z,96900.00
2023-03-08T14:16:57.697Z,96899.13
2023-03-08T14:19:26.632Z,96897.03
2023-03-08T14:21:55.756Z,96886.84
2023-03-08T14:24:25.728Z,96876.63
2023-03-08T14:27:03.944Z,96883.19
2023-03-08T14:29:33.064Z,96867.28
2023-03-08T14:32:04.672Z,96859.69
2023-03-08T14:34:36.296Z,96853.66
2023-03-08T14:37:06.595Z,96842.97
2023-03-08T14:39:35.846Z,96849.44
2023-03-08T14:42:11.340Z,96843.47
2023-03-08T14:44:39.584Z,96844.16
2023-03-08T14:47:23.011Z,96839.44
2023-03-08T14:49:58.032Z,96830.91
2023-03-08T14:52:28.117Z,96828.03
2023-03-08T14:54:56.091Z,96809.72
2023-03-08T14:57:24.716Z,96798.50
2023-03-08T14:59:52.928Z,96809.16
2023-03-08T15:02:22.496Z,96797.44
2023-03-08T15:04:50.491Z,96802.03
2023-03-08T15:07:21.674Z,96808.13
2023-03-08T15:09:50.543Z,96796.16
2023-03-08T15:12:19.229Z,96792.72
2023-03-08T15:14:47.266Z,96778.16
2023-03-08T15:17:15.201Z,96789.88
2023-03-08T15:19:44.802Z,96785.94
2023-03-08T15:22:14.605Z,96781.81
2023-03-08T15:24:42.748Z,96764.63
2023-03-08T15:27:14.717Z,96768.31
2023-03-08T15:29:42.756Z,96770.09
2023-03-08T15:32:11.625Z,96750.03
2023-03-08T15:34:40.968Z,96735.09
2023-03-08T15:37:12.705Z,96728.13
2023-03-08T15:39:40.973Z,96738.84
2023-03-08T15:42:08.981Z,96722.66
2023-03-08T15:44:37.026Z,96724.22
2023-03-08T15:47:05.120Z,96726.59
2023-03-08T15:49:33.218Z,96724.78
2023-03-08T15:52:01.235Z,96724.50
2023-03-08T15:54:31.909Z,96706.03
2023-03-08T15:56:59.966Z,96718.53
2023-03-08T15:59:28.011Z,96702.13
2023-03-08T16:01:55.969Z,96714.13
2023-03-08T16:04:24.014Z,96680.72
2023-03-08T16:06:52.037Z,96697.66
2023-03-08T16:09:19.982Z,96699.75
2023-03-08T16:11:49.533Z,96698.72
2023-03-08T16:14:18.801Z,96691.97
2023-03-08T16:16:46.736Z,96685.72
2023-03-08T16:19:14.740Z,96696.38
2023-03-08T16:21:42.857Z,96683.09
2023-03-08T16:24:12.032Z,96684.94
2023-03-08T16:26:40.214Z,96693.28
2023-03-08T16:29:09.612Z,96689.09
2023-03-08T16:31:37.569Z,96700.84
2023-03-08T16:34:05.914Z,96699.03
2023-03-08T16:36:34.016Z,96689.09
2023-03-08T16:39:01.973Z,96659.63
2023-03-08T16:41:30.219Z,96674.50
2023-03-08T16:43:58.506Z,96678.16
2023-03-08T16:46:28.033Z,96651.28
2023-03-08T16:48:56.495Z,96659.13
2023-03-08T16:51:26.032Z,96659.38
2023-03-08T16:53:54.329Z,96624.44
2023-03-08T16:56:23.216Z,96635.66
2023-03-08T16:58:51.333Z,96647.63
2023-03-08T17:01:19.801Z,96635.13
2023-03-08T17:03:49.543Z,96639.03
2023-03-08T17:06:18.713Z,96638.78
2023-03-08T17:08:47.149Z,96632.50
2023-03-08T17:11:15.938Z,96628.34
2023-03-08T17:13:44.264Z,96629.91
2023-03-08T17:16:13.165Z,96629.91
2023-03-08T17:18:41.228Z,96631.47
2023-03-08T17:21:10.844Z,96616.34
2023-03-08T17:23:38.748Z,96613.72
2023-03-08T17:26:07.456Z,96612.91
2023-03-08T17:28:35.601Z,96617.34
2023-03-08T17:31:04.182Z,96603.25
2023-03-08T17:33:32.163Z,96608.19
2023-03-08T17:36:02.313Z,96602.19
2023-03-08T17:38:32.135Z,96608.69
2023-03-08T17:41:00.185Z,96593.31
2023-03-08T17:43:28.137Z,96585.19
2023-03-08T17:45:59.674Z,96591.19
2023-03-08T17:48:27.592Z,96586.47
2023-03-08T17:50:55.561Z,96586.72
2023-03-08T17:53:23.609Z,96597.44
2023-03-08T17:55:52.979Z,96594.03
2023-03-08T17:58:21.056Z,96578.06
2023-03-08T18:00:49.021Z,96571.56
2023-03-08T18:03:17.081Z,96579.91
2023-03-08T18:05:48.818Z,96587.75
2023-03-08T18:08:16.741Z,96581.19
2023-03-08T18:10:44.898Z,96563.94
2023-03-08T18:13:14.256Z,96573.38
2023-03-08T18:15:42.210Z,96565.00
2023-03-08T18:18:10.212Z,96576.19
2023-03-08T18:20:38.170Z,96575.41
2023-03-08T18:23:07.285Z,96569.94
2023-03-08T18:25:35.581Z,96569.41
2023-03-08T18:28:03.515Z,96568.59
2023-03-08T18:30:32.854Z,96562.34
2023-03-08T18:33:00.816Z,96567.03
2023-03-08T18:35:35.008Z,96552.41
2023-03-08T18:38:03.422Z,96572.78
2023-03-08T18:40:31.755Z,96566.53
2023-03-08T18:43:00.939Z,96574.88
2023-03-08T18:45:28.934Z,96569.34
2023-03-08T18:47:58.241Z,96581.59
2023-03-08T18:50:26.269Z,96583.16
2023-03-08T18:52:54.276Z,96577.72
2023-03-08T18:55:22.308Z,96573.53
2023-03-08T18:57:50.360Z,96590.78
2023-03-08T19:00:19.120Z,96592.63
2023-03-08T19:02:47.113Z,96596.28
2023-03-08T19:05:17.716Z,96593.88
2023-03-08T19:07:46.801Z,96611.16
2023-03-08T19:10:15.396Z,96607.19
2023-03-08T19:12:43.936Z,96603.75
2023-03-08T19:15:12.700Z,96598.31
2023-03-08T19:17:40.999Z,96589.13
2023-03-08T19:20:09.993Z,96571.06
2023-03-08T19:22:39.895Z,96565.91
2023-03-08T19:25:08.367Z,96571.34
2023-03-08T19:27:36.412Z,96580.53
2023-03-08T19:30:04.548Z,96580.25
2023-03-08T19:32:32.500Z,96589.88
2023-03-08T19:35:01.925Z,96588.63
2023-03-08T19:37:30.509Z,96592.56
2023-03-08T19:40:01.299Z,96597.50
2023-03-08T19:42:30.740Z,96604.50
2023-03-08T19:44:58.839Z,96567.78
2023-03-08T19:47:27.002Z,96603.75
2023-03-08T19:49:55.069Z,96611.31
2023-03-08T19:52:23.180Z,96614.50
2023-03-08T19:54:51.151Z,96628.03
2023-03-08T19:57:20.564Z,96629.13
2023-03-08T19:59:48.564Z,96619.22
2023-03-08T20:02:16.449Z,96630.66
2023-03-08T20:04:44.504Z,96629.59
2023-03-08T20:07:12.460Z,96635.66
2023-03-08T20:09:42.454Z,96632.31
2023-03-08T20:12:10.724Z,96640.63
2023-03-08T20:14:40.304Z,96633.66
2023-03-08T20:17:08.327Z,96644.38
2023-03-08T20:19:36.847Z,96628.22
2023-03-08T20:22:05.510Z,96632.38
2023-03-08T20:24:33.493Z,96650.69
2023-03-08T20:27:01.458Z,96640.78
2023-03-08T20:29:29.504Z,96641.06
2023-03-08T20:31:59.480Z,96644.16
2023-03-08T20:34:27.895Z,96638.19
2023-03-08T20:36:55.971Z,96635.06
2023-03-08T20:39:24.118Z,96620.22
2023-03-08T20:41:52.068Z,96637.19
2023-03-08T20:44:20.118Z,96643.97
2023-03-08T20:46:47.954Z,96652.59
2023-03-08T20:49:17.276Z,96658.59
2023-03-08T20:51:45.259Z,96648.41
2023-03-08T20:54:13.752Z,96641.63
2023-03-08T20:56:41.798Z,96639.03
2023-03-08T20:59:10.149Z,96640.09
2023-03-08T21:01:38.896Z,96651.03
2023-03-08T21:04:07.190Z,96640.84
2023-03-08T21:06:36.621Z,96645.53
2023-03-08T21:09:04.931Z,96655.69
2023-03-08T21:11:32.964Z,96659.09
2023-03-08T21:14:01.020Z,96668.44
2023-03-08T21:16:29.872Z,96667.16
2023-03-08T21:18:59.229Z,96667.94
2023-03-08T21:21:29.172Z,96661.69
2023-03-08T21:23:59.694Z,96669.97
2023-03-08T21:26:28.330Z,96668.41
2023-03-08T21:28:56.777Z,96674.13
2023-03-08T21:31:25.124Z,96666.28
2023-03-08T21:33:53.628Z,96664.19
2023-03-08T21:36:21.836Z,96664.72
2023-03-08T21:38:52.353Z,96673.03
2023-03-08T21:41:22.354Z,96673.00
2023-03-08T21:43:50.284Z,96672.78
2023-03-08T21:46:18.866Z,96682.91
2023-03-08T21:48:47.149Z,96674.09
2023-03-08T21:51:15.564Z,96664.69
2023-03-08T21:53:44.281Z,96682.13
2023-03-08T21:56:15.837Z,96680.28
2023-03-08T21:58:45.876Z,96670.91
2023-03-08T22:01:21.329Z,96684.16
2023-03-08T22:03:49.439Z,96687.81
2023-03-08T22:06:17.545Z,96685.94
2023-03-08T22:08:45.847Z,96681.25
2023-03-08T22:11:14.387Z,96693.69
2023-03-08T22:13:42.353Z,96692.94
2023-03-08T22:16:12.021Z,96703.34
2023-03-08T22:18:40.112Z,96708.78
2023-03-08T22:21:08.084Z,96704.59
2023-03-08T22:23:36.033Z,96709.28
2023-03-08T22:26:07.134Z,96714.16
2023-03-08T22:28:35.145Z,96721.72
2023-03-08T22:31:03.062Z,96708.09
2023-03-08T22:33:32.843Z,96719.09
2023-03-08T22:36:00.880Z,96715.69
2023-03-08T22:38:28.783Z,96732.63
2023-03-08T22:40:56.710Z,96730.28
2023-03-08T22:43:24.939Z,96727.13
2023-03-08T22:45:53.166Z,96724.72
2023-03-08T22:48:21.138Z,96714.53
2023-03-08T22:50:58.734Z,96732.53
2023-03-08T22:53:36.584Z,96739.81
2023-03-08T22:56:04.568Z,96723.19
2023-03-08T22:58:32.448Z,96740.13
2023-03-08T23:01:00.514Z,96739.81
2023-03-08T23:03:28.403Z,96742.19
2023-03-08T23:05:57.748Z,96739.63
2023-03-08T23:08:25.720Z,96753.13
2023-03-08T23:10:53.616Z,96765.34
2023-03-08T23:13:33.011Z,96755.16
2023-03-08T23:16:02.204Z,96744.53
2023-03-08T23:18:30.508Z,96756.16
2023-03-08T23:21:03.524Z,96761.09
2023-03-08T23:23:31.697Z,96767.28
2023-03-08T23:25:59.803Z,96754.00
2023-03-08T23:28:27.774Z,96763.09
2023-03-08T23:30:55.742Z,96768.34
2023-03-08T23:33:23.723Z,96802.88
2023-03-08T23:35:51.720Z,96760.97
2023-03-08T23:38:21.016Z,96768.22
2023-03-08T23:40:48.966Z,96757.53
2023-03-08T23:43:16.983Z,96754.41
2023-03-08T23:45:44.874Z,96752.50
2023-03-08T23:48:12.831Z,96749.16
2023-03-08T23:50:40.770Z,96757.47
2023-03-08T23:53:08.750Z,96751.72
2023-03-08T23:55:39.554Z,96756.66
2023-03-08T23:58:07.557Z,96761.31
